createdAt,value
2022-12-24T00:03:28.386Z,1.20
2022-12-24T00:08:23.406Z,1.07
2022-12-24T00:13:23.405Z,1.10
2022-12-24T00:18:10.415Z,1.10
2022-12-24T00:23:03.521Z,1.13
2022-12-24T00:28:35.178Z,1.10
2022-12-24T00:33:26.562Z,1.10
2022-12-24T00:44:21.323Z,1.33
2022-12-24T00:49:07.792Z,1.30
2022-12-24T00:54:07.369Z,1.50
2022-12-24T00:58:59.275Z,1.37
2022-12-24T01:03:46.193Z,1.33
2022-12-24T01:08:47.420Z,1.83
2022-12-24T01:13:38.523Z,1.97
2022-12-24T01:18:28.225Z,2.07
2022-12-24T01:23:13.169Z,1.67
2022-12-24T01:28:17.486Z,1.80
2022-12-24T01:33:08.767Z,1.30
2022-12-24T01:37:54.654Z,1.63
2022-12-24T01:43:13.237Z,2.00
2022-12-24T01:48:04.827Z,2.10
2022-12-24T01:58:23.772Z,1.77
2022-12-24T02:03:18.401Z,1.50
2022-12-24T02:08:05.350Z,1.60
2022-12-24T02:13:19.461Z,2.10
2022-12-24T02:25:59.537Z,1.33
2022-12-24T02:31:03.897Z,1.90
2022-12-24T02:36:53.259Z,1.37
2022-12-24T02:42:22.375Z,1.37
2022-12-24T02:47:46.952Z,1.60
2022-12-24T02:52:38.500Z,1.40
2022-12-24T02:57:40.591Z,1.27
2022-12-24T03:02:42.721Z,1.07
2022-12-24T03:07:43.630Z,1.50
2022-12-24T03:12:53.408Z,1.63
2022-12-24T03:17:40.801Z,1.20
2022-12-24T03:22:30.203Z,1.20
2022-12-24T03:27:18.090Z,1.40
2022-12-24T03:32:03.864Z,1.23
2022-12-24T03:36:53.325Z,1.30
2022-12-24T03:41:43.370Z,1.20
2022-12-24T03:46:27.226Z,1.50
2022-12-24T03:51:26.078Z,1.30
2022-12-24T03:56:35.393Z,1.57
2022-12-24T04:01:23.394Z,1.03
2022-12-24T04:06:23.598Z,1.00
2022-12-24T04:11:32.447Z,1.37
2022-12-24T04:16:17.923Z,1.30
2022-12-24T04:21:05.650Z,0.90
2022-12-24T04:25:58.243Z,1.30
2022-12-24T04:30:44.047Z,1.10
2022-12-24T04:35:45.525Z,1.00
2022-12-24T04:40:32.712Z,1.53
2022-12-24T04:46:41.651Z,1.53
2022-12-24T04:52:22.005Z,1.53
2022-12-24T04:57:52.891Z,1.57
2022-12-24T05:37:37.327Z,1.83
2022-12-24T05:42:25.160Z,1.40
2022-12-24T05:47:29.902Z,2.03
2022-12-24T06:09:42.623Z,1.73
2022-12-24T06:14:37.747Z,1.80
2022-12-24T06:32:32.223Z,1.90
2022-12-24T06:37:53.457Z,2.23
2022-12-24T06:43:02.658Z,2.00
2022-12-24T07:00:38.987Z,1.50
2022-12-24T07:06:06.704Z,1.77
2022-12-24T07:11:01.426Z,1.20
2022-12-24T07:16:07.433Z,1.60
2022-12-24T07:21:09.668Z,1.90
2022-12-24T07:39:03.541Z,2.17
2022-12-24T08:19:32.638Z,1.70
2022-12-24T08:37:57.840Z,2.07
2022-12-24T08:56:48.149Z,2.30
2022-12-24T09:08:38.039Z,1.97
2022-12-24T09:21:23.162Z,2.30
2022-12-24T09:45:43.434Z,1.90
2022-12-24T09:58:22.502Z,1.93
2022-12-24T10:03:59.165Z,2.47
2022-12-24T10:09:38.288Z,2.20
2022-12-24T10:15:10.404Z,2.03
2022-12-24T10:26:26.248Z,2.33
2022-12-24T10:32:01.060Z,2.17
2022-12-24T10:37:35.854Z,2.93
2022-12-24T10:42:54.795Z,2.00
2022-12-24T10:48:13.985Z,1.90
2022-12-24T10:53:39.913Z,1.80
2022-12-24T10:58:27.072Z,2.20
2022-12-24T11:03:45.694Z,1.83
2022-12-24T11:08:35.690Z,1.67
2022-12-24T11:13:37.884Z,2.03
2022-12-24T11:18:26.430Z,1.97
2022-12-24T11:23:18.316Z,1.67
2022-12-24T11:28:39.051Z,1.70
2022-12-24T11:33:23.732Z,1.40
2022-12-24T11:38:27.717Z,1.40
2022-12-24T11:43:18.339Z,1.90
2022-12-24T11:48:03.672Z,1.60
2022-12-24T11:53:04.077Z,1.57
2022-12-24T11:58:09.113Z,2.13
2022-12-24T12:03:03.700Z,1.60
2022-12-24T12:08:16.416Z,1.77
2022-12-24T12:13:19.895Z,1.60
2022-12-24T12:18:41.563Z,1.63
2022-12-24T12:23:32.383Z,1.67
2022-12-24T12:28:22.866Z,1.43
2022-12-24T12:33:20.689Z,1.80
2022-12-24T12:38:25.455Z,1.50
2022-12-24T12:43:45.716Z,1.80
2022-12-24T12:48:48.101Z,1.90
2022-12-24T12:54:23.295Z,2.27
2022-12-24T12:59:28.095Z,1.63
2022-12-24T13:04:51.681Z,1.50
2022-12-24T13:10:26.627Z,1.77
2022-12-24T13:16:35.189Z,1.57
2022-12-24T13:21:25.619Z,1.10
2022-12-24T13:26:27.045Z,1.97
2022-12-24T13:31:35.913Z,1.43
2022-12-24T13:37:05.103Z,1.70
2022-12-24T13:41:56.583Z,1.60
2022-12-24T13:46:58.054Z,1.67
2022-12-24T13:51:45.547Z,1.90
2022-12-24T13:56:38.464Z,2.03
2022-12-24T14:01:37.494Z,1.67
2022-12-24T14:06:26.448Z,1.80
2022-12-24T14:11:15.693Z,1.53
2022-12-24T14:16:05.633Z,1.37
2022-12-24T14:20:52.613Z,1.60
2022-12-24T14:25:36.241Z,1.47
2022-12-24T14:30:26.396Z,1.70
2022-12-24T14:35:18.909Z,1.50
2022-12-24T14:40:05.794Z,1.60
2022-12-24T14:45:03.603Z,1.80
2022-12-24T14:50:28.619Z,2.17
2022-12-24T14:55:44.648Z,1.30
2022-12-24T15:00:39.235Z,1.87
2022-12-24T15:05:37.528Z,2.03
2022-12-24T15:10:28.544Z,1.67
2022-12-24T15:15:18.783Z,1.80
2022-12-24T15:20:04.464Z,1.73
2022-12-24T15:24:51.795Z,3.57
2022-12-24T15:29:52.287Z,1.73
2022-12-24T15:34:45.871Z,1.70
2022-12-24T15:39:29.581Z,2.03
2022-12-24T15:44:17.616Z,1.70
2022-12-24T15:49:05.539Z,1.97
2022-12-24T15:54:07.511Z,1.73
2022-12-24T15:59:45.136Z,1.80
2022-12-24T16:04:35.018Z,1.63
2022-12-24T16:09:41.813Z,1.47
2022-12-24T16:14:25.785Z,1.63
2022-12-24T16:19:19.927Z,2.10
2022-12-24T16:24:37.487Z,2.00
2022-12-24T16:29:22.515Z,1.60
2022-12-24T16:34:14.901Z,1.43
2022-12-24T16:39:16.710Z,1.80
2022-12-24T16:44:01.731Z,1.40
2022-12-24T16:48:50.239Z,1.50
2022-12-24T16:53:38.239Z,1.40
2022-12-24T16:58:26.117Z,1.50
2022-12-24T17:03:15.180Z,2.37
2022-12-24T17:08:02.394Z,2.00
2022-12-24T17:12:50.299Z,2.03
2022-12-24T17:17:37.522Z,4.50
2022-12-24T17:22:27.338Z,2.30
2022-12-24T17:27:17.079Z,2.40
2022-12-24T17:32:00.904Z,1.93
2022-12-24T17:36:49.517Z,2.97
2022-12-24T17:41:59.444Z,2.27
2022-12-24T17:46:43.191Z,2.40
2022-12-24T17:51:31.226Z,2.43
2022-12-24T17:56:19.059Z,2.57
2022-12-24T18:01:07.535Z,3.20
2022-12-24T18:05:54.928Z,2.63
2022-12-24T18:10:40.548Z,2.77
2022-12-24T18:15:28.608Z,2.33
2022-12-24T18:20:44.337Z,2.90
2022-12-24T18:25:38.043Z,3.07
2022-12-24T18:30:27.868Z,2.33
2022-12-24T18:35:13.116Z,2.93
2022-12-24T18:40:03.741Z,3.00
2022-12-24T18:44:50.966Z,2.43
2022-12-24T18:49:38.047Z,2.30
2022-12-24T18:54:25.877Z,2.37
2022-12-24T18:59:46.099Z,2.27
2022-12-24T19:04:32.490Z,2.10
2022-12-24T19:09:56.101Z,2.57
2022-12-24T19:15:00.279Z,2.70
2022-12-24T19:20:16.272Z,2.37
2022-12-24T19:25:07.355Z,2.37
2022-12-24T19:29:56.891Z,2.10
2022-12-24T19:34:40.633Z,2.63
2022-12-24T19:39:32.081Z,2.37
2022-12-24T19:44:50.052Z,2.07
2022-12-24T19:49:39.040Z,2.43
2022-12-24T19:54:26.645Z,2.47
2022-12-24T19:59:13.589Z,2.87
2022-12-24T20:04:32.685Z,2.37
2022-12-24T20:09:43.741Z,2.70
2022-12-24T20:15:10.439Z,1.87
2022-12-24T20:20:18.945Z,2.67
2022-12-24T20:25:09.699Z,2.10
2022-12-24T20:29:53.375Z,2.40
2022-12-24T20:34:46.405Z,2.40
2022-12-24T20:40:00.586Z,2.10
2022-12-24T20:45:10.988Z,2.90
2022-12-24T20:49:54.897Z,2.77
2022-12-24T21:01:22.245Z,2.57
2022-12-24T21:04:33.761Z,2.40
2022-12-24T21:06:30.734Z,2.40
2022-12-24T21:12:21.243Z,2.20
2022-12-24T21:17:24.530Z,2.60
2022-12-24T21:22:08.620Z,2.80
2022-12-24T21:26:56.595Z,2.50
2022-12-24T21:32:05.208Z,3.27
2022-12-24T21:36:54.894Z,3.20
2022-12-24T21:41:55.107Z,2.50
2022-12-24T21:47:18.788Z,2.73
2022-12-24T21:52:06.387Z,2.27
2022-12-24T21:57:24.586Z,2.57
2022-12-24T22:02:12.316Z,2.67
2022-12-24T22:13:54.295Z,2.90
2022-12-24T22:24:50.371Z,2.80
2022-12-24T22:29:40.049Z,2.70
2022-12-24T22:34:24.645Z,2.93
2022-12-24T22:39:35.229Z,2.60
2022-12-24T22:44:18.867Z,2.63
2022-12-24T22:49:43.627Z,3.20
2022-12-24T22:54:59.520Z,2.67
2022-12-24T23:00:16.126Z,3.00
2022-12-24T23:05:07.300Z,2.00
2022-12-24T23:10:12.569Z,2.87
2022-12-24T23:15:17.780Z,2.30
2022-12-24T23:20:03.600Z,2.57
2022-12-24T23:25:39.113Z,3.00
2022-12-24T23:30:26.198Z,2.63
2022-12-24T23:35:28.818Z,3.00
2022-12-24T23:40:22.760Z,2.17
2022-12-24T23:45:09.663Z,2.60
2022-12-24T23:49:53.607Z,2.67
2022-12-24T23:54:45.465Z,4.93
2022-12-24T23:59:29.462Z,2.97
